Robert C. Seamans — WDA4486 — position and weather

sailwx.info

Track history (hours):
 
Tides and Currents Weather Stations Pressure Air Temp Water Temp Dewpoint Dewpoint Depression Visibility Wind Speed Wind Dir Waves Ship Positions

Oceanographic research ship Robert C. Seamans (USA)

Ship's website: http://www.sea.edu/sea2000/Supporting2000/RobertSeamansIntro.htm

Detailed information on ship capabilities available from University of Delaware's Ocean Information Center.

Owner: Sea Education Association Corporation, Woods Hole, MA. More information available from US FCC via Universal Licensing System and Coast Guard Vessel Documentation Center.

Last reported at 2018-Dec-13 12:00 UTC. Time now 2018-Dec-13 20:16 UTC.
Position S 37°00' E 176°36'.

Type: Sailing vessel. MMSI: 369503000.

Wind from 350 at 8 knots

Barometer 1017.1 mb
Air temperature 20.0 ° C
Visibility: greater than 10.8 NM
Dewpoint 17.7 ° C
Water temperature 20.0 ° C

Date/timePositionNaut miles runAvg speedWind from/ knotsBaromVisibWave heightAir tempDewpointWater temp
2018-Dec-13 12:00S 37°00' E 176°36'12 3.0 350 / 81017.110.8 20.017.720.0
2018-Dec-13 07:49S 37°02' E 176°51'4 1.9
2018-Dec-13 05:58S 37°01' E 176°56'0 1.0
2018-Dec-13 05:30S 37°01' E 176°55'1 2.9
2018-Dec-13 05:01S 37°01' E 176°53'2 3.6
2018-Dec-13 04:31S 37°01' E 176°51'2 3.6
2018-Dec-13 03:59S 37°01' E 176°49'2 3.7
2018-Dec-13 03:31S 37°02' E 176°47'2 3.2
2018-Dec-13 02:56S 37°02' E 176°44'1 3.0
2018-Dec-13 02:26S 37°02' E 176°42'5 1.6
2018-Dec-12 23:31S 37°02' E 176°37'1 1.0
2018-Dec-12 22:21S 37°02' E 176°35'1 0.9
2018-Dec-12 21:37S 37°01' E 176°35'0 0.8
2018-Dec-12 21:30S 37°01' E 176°35'9 4.3
2018-Dec-12 19:30S 37°08' E 176°42'6 6.2
2018-Dec-12 18:31S 37°13' E 176°46'0 6.1
2018-Dec-12 18:30S 37°13' E 176°46'510.3
2018-Dec-12 18:00S 37°18' E 176°48'1 2.8 330 / 51014.210.8 20.119.919.5
2018-Dec-12 17:42S 37°17' E 176°49'1 6.2
2018-Dec-12 17:30S 37°18' E 176°49'3 6.4
2018-Dec-12 17:00S 37°21' E 176°52'3 6.6
2018-Dec-12 16:31S 37°24' E 176°54'3 6.6
2018-Dec-12 16:01S 37°26' E 176°57'3 6.7
2018-Dec-12 15:30S 37°29' E 176°60'3 6.7
2018-Dec-12 15:00S 37°31' E 177°03'3 6.4
2018-Dec-12 14:31S 37°33' E 177°06'1 1.5
2018-Dec-12 14:00S 37°34' E 177°06'2 3.2
2018-Dec-12 13:30S 37°35' E 177°07'2 4.5
2018-Dec-12 13:00S 37°37' E 177°06'0 0.3
2018-Dec-12 12:30S 37°37' E 177°06'0 0.4
2018-Dec-12 12:00S 37°37' E 177°07'1 1.6
2018-Dec-12 11:30S 37°37' E 177°08'1 1.6
2018-Dec-12 11:00S 37°37' E 177°09'1 2.4
2018-Dec-12 10:31S 37°37' E 177°10'1 2.9
2018-Dec-12 10:00S 37°37' E 177°12'2 3.0
2018-Dec-12 09:30S 37°37' E 177°14'1 3.0
2018-Dec-12 09:01S 37°37' E 177°16'1 1.3
2018-Dec-12 08:30S 37°36' E 177°15'0 1.0
2018-Dec-12 08:00S 37°36' E 177°14'1 2.8
2018-Dec-12 07:30S 37°36' E 177°16'2 3.2
2018-Dec-12 07:01S 37°36' E 177°18'1 1.5
2018-Dec-12 06:31S 37°36' E 177°19'1 2.5
2018-Dec-12 06:00S 37°35' E 177°17'1 2.2
2018-Dec-12 05:30S 37°35' E 177°16'1 1.5
2018-Dec-12 05:00S 37°35' E 177°15'2 3.2
2018-Dec-12 04:30S 37°34' E 177°17'3 6.9
2018-Dec-12 04:00S 37°33' E 177°21'3 6.6
2018-Dec-12 03:30S 37°32' E 177°25'3 5.2
2018-Dec-12 03:00S 37°31' E 177°28'0 0.8
2018-Dec-12 02:30S 37°31' E 177°28'0 0.7
2018-Dec-12 02:00S 37°31' E 177°28'0 0.6
2018-Dec-12 01:30S 37°30' E 177°27'0 0.5
2018-Dec-12 01:01S 37°30' E 177°27'0 0.7
2018-Dec-12 00:30S 37°30' E 177°27'3 5.9
2018-Dec-12 00:00S 37°29' E 177°31'3 6.1
2018-Dec-11 23:30S 37°28' E 177°35'3 5.7
2018-Dec-11 23:00S 37°27' E 177°38'1 2.0
2018-Dec-11 22:30S 37°26' E 177°39'0 0.8
2018-Dec-11 22:00S 37°26' E 177°39'0 0.5
2018-Dec-11 21:31S 37°26' E 177°39'0 0.5
2018-Dec-11 21:01S 37°25' E 177°39'2 3.5
2018-Dec-11 20:30S 37°25' E 177°41'3 5.4
2018-Dec-11 20:00S 37°24' E 177°44'3 5.6
2018-Dec-11 19:30S 37°23' E 177°47'49 6.6
2018-Dec-11 12:00S 37°12' E 178°48'20 1.7 020 / 91015.4 19.015.619.0
2018-Dec-11 00:00S 37°30' E 179°00'54 4.5 110 / 131015.410.8 19.915.218.7
2018-Dec-10 12:00S 38°18' E 179°30'51 8.4 150 / 101015.0 5.4 18.016.319.1
2018-Dec-10 06:00S 39°00' E 178°54'   090 / 101013.4 5.4 18.717.419.1
2018-Dec-04 18:00S 39°24' E 177°12'   300 / 261002.4 5.4 18.1 8.217.4
Track history (hours):
 
Tides and Currents Weather Stations Pressure Air Temp Water Temp Dewpoint Dewpoint Depression Visibility Wind Speed Wind Dir Waves Ship Positions

Oceanographic research ship Robert C. Seamans (USA)

Ship's website: http://www.sea.edu/sea2000/Supporting2000/RobertSeamansIntro.htm

Detailed information on ship capabilities available from University of Delaware's Ocean Information Center.

Owner: Sea Education Association Corporation, Woods Hole, MA. More information available from US FCC via Universal Licensing System and Coast Guard Vessel Documentation Center.

Last reported at 2018-Dec-13 12:00 UTC. Time now 2018-Dec-13 20:16 UTC.
Position S 37°00' E 176°36'.

Type: Sailing vessel. MMSI: 369503000.

Wind from 350 at 8 knots

Barometer 1017.1 mb
Air temperature 20.0 ° C
Visibility: greater than 10.8 NM
Dewpoint 17.7 ° C
Water temperature 20.0 ° C

Date/timePositionNaut miles runAvg speedWind from/ knotsBaromVisibWave heightAir tempDewpointWater temp
2018-Dec-13 12:00S 37°00' E 176°36'12 3.0 350 / 81017.110.8 20.017.720.0
2018-Dec-13 07:49S 37°02' E 176°51'4 1.9
2018-Dec-13 05:58S 37°01' E 176°56'0 1.0
2018-Dec-13 05:30S 37°01' E 176°55'1 2.9
2018-Dec-13 05:01S 37°01' E 176°53'2 3.6
2018-Dec-13 04:31S 37°01' E 176°51'2 3.6
2018-Dec-13 03:59S 37°01' E 176°49'2 3.7
2018-Dec-13 03:31S 37°02' E 176°47'2 3.2
2018-Dec-13 02:56S 37°02' E 176°44'1 3.0
2018-Dec-13 02:26S 37°02' E 176°42'5 1.6
2018-Dec-12 23:31S 37°02' E 176°37'1 1.0
2018-Dec-12 22:21S 37°02' E 176°35'1 0.9
2018-Dec-12 21:37S 37°01' E 176°35'0 0.8
2018-Dec-12 21:30S 37°01' E 176°35'9 4.3
2018-Dec-12 19:30S 37°08' E 176°42'6 6.2
2018-Dec-12 18:31S 37°13' E 176°46'0 6.1
2018-Dec-12 18:30S 37°13' E 176°46'510.3
2018-Dec-12 18:00S 37°18' E 176°48'1 2.8 330 / 51014.210.8 20.119.919.5
2018-Dec-12 17:42S 37°17' E 176°49'1 6.2
2018-Dec-12 17:30S 37°18' E 176°49'3 6.4
2018-Dec-12 17:00S 37°21' E 176°52'3 6.6
2018-Dec-12 16:31S 37°24' E 176°54'3 6.6
2018-Dec-12 16:01S 37°26' E 176°57'3 6.7
2018-Dec-12 15:30S 37°29' E 176°60'3 6.7
2018-Dec-12 15:00S 37°31' E 177°03'3 6.4
2018-Dec-12 14:31S 37°33' E 177°06'1 1.5
2018-Dec-12 14:00S 37°34' E 177°06'2 3.2
2018-Dec-12 13:30S 37°35' E 177°07'2 4.5
2018-Dec-12 13:00S 37°37' E 177°06'0 0.3
2018-Dec-12 12:30S 37°37' E 177°06'0 0.4
2018-Dec-12 12:00S 37°37' E 177°07'1 1.6
2018-Dec-12 11:30S 37°37' E 177°08'1 1.6
2018-Dec-12 11:00S 37°37' E 177°09'1 2.4
2018-Dec-12 10:31S 37°37' E 177°10'1 2.9
2018-Dec-12 10:00S 37°37' E 177°12'2 3.0
2018-Dec-12 09:30S 37°37' E 177°14'1 3.0
2018-Dec-12 09:01S 37°37' E 177°16'1 1.3
2018-Dec-12 08:30S 37°36' E 177°15'0 1.0
2018-Dec-12 08:00S 37°36' E 177°14'1 2.8
2018-Dec-12 07:30S 37°36' E 177°16'2 3.2
2018-Dec-12 07:01S 37°36' E 177°18'1 1.5
2018-Dec-12 06:31S 37°36' E 177°19'1 2.5
2018-Dec-12 06:00S 37°35' E 177°17'1 2.2
2018-Dec-12 05:30S 37°35' E 177°16'1 1.5
2018-Dec-12 05:00S 37°35' E 177°15'2 3.2
2018-Dec-12 04:30S 37°34' E 177°17'3 6.9
2018-Dec-12 04:00S 37°33' E 177°21'3 6.6
2018-Dec-12 03:30S 37°32' E 177°25'3 5.2
2018-Dec-12 03:00S 37°31' E 177°28'0 0.8
2018-Dec-12 02:30S 37°31' E 177°28'0 0.7
2018-Dec-12 02:00S 37°31' E 177°28'0 0.6
2018-Dec-12 01:30S 37°30' E 177°27'0 0.5
2018-Dec-12 01:01S 37°30' E 177°27'0 0.7
2018-Dec-12 00:30S 37°30' E 177°27'3 5.9
2018-Dec-12 00:00S 37°29' E 177°31'3 6.1
2018-Dec-11 23:30S 37°28' E 177°35'3 5.7
2018-Dec-11 23:00S 37°27' E 177°38'1 2.0
2018-Dec-11 22:30S 37°26' E 177°39'0 0.8
2018-Dec-11 22:00S 37°26' E 177°39'0 0.5
2018-Dec-11 21:31S 37°26' E 177°39'0 0.5
2018-Dec-11 21:01S 37°25' E 177°39'2 3.5
2018-Dec-11 20:30S 37°25' E 177°41'3 5.4
2018-Dec-11 20:00S 37°24' E 177°44'3 5.6
2018-Dec-11 19:30S 37°23' E 177°47'49 6.6
2018-Dec-11 12:00S 37°12' E 178°48'20 1.7 020 / 91015.4 19.015.619.0
2018-Dec-11 00:00S 37°30' E 179°00'54 4.5 110 / 131015.410.8 19.915.218.7
2018-Dec-10 12:00S 38°18' E 179°30'51 8.4 150 / 101015.0 5.4 18.016.319.1
2018-Dec-10 06:00S 39°00' E 178°54'   090 / 101013.4 5.4 18.717.419.1
2018-Dec-04 18:00S 39°24' E 177°12'   300 / 261002.4 5.4 18.1 8.217.4

Dump ship's entire track history